sensor_id;sensor_type;location;lat;lon;timestamp;P1;durP1;ratioP1;P2;durP2;ratioP2
67585;SDS011;55785;47.946;20.540;2023-03-01T18:25:20;9.83;;;4.70;;
67585;SDS011;55785;47.946;20.540;2023-03-01T18:27:46;8.40;;;4.13;;
67585;SDS011;55785;47.946;20.540;2023-03-01T18:30:11;11.30;;;5.43;;
67585;SDS011;55785;47.946;20.540;2023-03-01T18:32:37;9.60;;;6.03;;
67585;SDS011;55785;47.946;20.540;2023-03-01T18:35:02;7.07;;;4.20;;
67585;SDS011;55785;47.946;20.540;2023-03-01T18:37:28;6.23;;;2.90;;
67585;SDS011;55785;47.946;20.540;2023-03-01T18:39:53;6.40;;;3.10;;
67585;SDS011;55785;47.946;20.540;2023-03-01T18:42:19;5.10;;;3.00;;
67585;SDS011;55785;47.946;20.540;2023-03-01T18:44:45;7.10;;;3.30;;
67585;SDS011;55785;47.946;20.540;2023-03-01T18:47:11;5.20;;;3.10;;
67585;SDS011;55785;47.946;20.540;2023-03-01T18:49:37;4.33;;;2.67;;
67585;SDS011;55785;47.946;20.540;2023-03-01T18:52:02;4.93;;;2.80;;
67585;SDS011;55785;47.946;20.540;2023-03-01T18:54:28;5.00;;;2.67;;
67585;SDS011;55785;47.946;20.540;2023-03-01T18:56:53;5.70;;;3.00;;
67585;SDS011;55785;47.946;20.540;2023-03-01T18:59:18;7.30;;;2.80;;
67585;SDS011;55785;47.946;20.540;2023-03-01T19:01:44;4.67;;;2.70;;
67585;SDS011;55785;47.946;20.540;2023-03-01T19:04:09;5.70;;;2.97;;
67585;SDS011;55785;47.946;20.540;2023-03-01T19:06:36;7.00;;;3.10;;
67585;SDS011;55785;47.946;20.540;2023-03-01T19:09:02;6.70;;;3.27;;
67585;SDS011;55785;47.946;20.540;2023-03-01T19:11:28;4.70;;;3.10;;
67585;SDS011;55785;47.946;20.540;2023-03-01T19:13:53;6.23;;;3.07;;
67585;SDS011;55785;47.946;20.540;2023-03-01T19:16:23;5.57;;;2.90;;
67585;SDS011;55785;47.946;20.540;2023-03-01T19:18:50;4.73;;;2.90;;
67585;SDS011;55785;47.946;20.540;2023-03-01T19:21:16;4.23;;;2.80;;
67585;SDS011;55785;47.946;20.540;2023-03-01T19:23:43;6.83;;;3.90;;
67585;SDS011;55785;47.946;20.540;2023-03-01T19:26:10;5.70;;;2.77;;
67585;SDS011;55785;47.946;20.540;2023-03-01T19:28:38;5.07;;;2.93;;
67585;SDS011;55785;47.946;20.540;2023-03-01T19:31:04;6.80;;;3.90;;
67585;SDS011;55785;47.946;20.540;2023-03-01T19:33:35;5.67;;;3.07;;
67585;SDS011;55785;47.946;20.540;2023-03-01T19:36:01;6.43;;;3.30;;
67585;SDS011;55785;47.946;20.540;2023-03-01T19:38:27;14.80;;;6.87;;
67585;SDS011;55785;47.946;20.540;2023-03-01T19:40:54;12.27;;;6.27;;
67585;SDS011;55785;47.946;20.540;2023-03-01T19:43:20;12.43;;;5.43;;
67585;SDS011;55785;47.946;20.540;2023-03-01T19:45:55;8.20;;;3.10;;
67585;SDS011;55785;47.946;20.540;2023-03-01T19:48:20;4.67;;;2.63;;
67585;SDS011;55785;47.946;20.540;2023-03-01T19:50:46;4.83;;;2.67;;
67585;SDS011;55785;47.946;20.540;2023-03-01T19:53:12;9.63;;;5.47;;
67585;SDS011;55785;47.946;20.540;2023-03-01T19:55:39;9.40;;;5.00;;
67585;SDS011;55785;47.946;20.540;2023-03-01T19:58:05;7.00;;;3.27;;
67585;SDS011;55785;47.946;20.540;2023-03-01T20:00:31;22.17;;;10.73;;
67585;SDS011;55785;47.946;20.540;2023-03-01T20:02:57;6.00;;;3.60;;
67585;SDS011;55785;47.946;20.540;2023-03-01T20:05:23;10.00;;;5.07;;
67585;SDS011;55785;47.946;20.540;2023-03-01T20:07:49;11.63;;;6.33;;
67585;SDS011;55785;47.946;20.540;2023-03-01T20:10:14;57.03;;;27.10;;
67585;SDS011;55785;47.946;20.540;2023-03-01T20:12:39;102.83;;;44.67;;
67585;SDS011;55785;47.946;20.540;2023-03-01T20:15:05;72.33;;;30.27;;
67585;SDS011;55785;47.946;20.540;2023-03-01T20:17:31;78.37;;;34.23;;
67585;SDS011;55785;47.946;20.540;2023-03-01T20:19:56;85.10;;;32.47;;
67585;SDS011;55785;47.946;20.540;2023-03-01T20:22:21;94.10;;;33.57;;
67585;SDS011;55785;47.946;20.540;2023-03-01T20:24:47;62.37;;;24.80;;
67585;SDS011;55785;47.946;20.540;2023-03-01T20:27:12;36.63;;;14.83;;
67585;SDS011;55785;47.946;20.540;2023-03-01T20:29:37;26.10;;;11.87;;
67585;SDS011;55785;47.946;20.540;2023-03-01T20:32:03;32.00;;;13.40;;
67585;SDS011;55785;47.946;20.540;2023-03-01T20:34:28;29.90;;;14.80;;
67585;SDS011;55785;47.946;20.540;2023-03-01T20:36:54;24.40;;;11.67;;
67585;SDS011;55785;47.946;20.540;2023-03-01T20:39:19;50.87;;;23.10;;
67585;SDS011;55785;47.946;20.540;2023-03-01T20:41:44;192.47;;;60.10;;
67585;SDS011;55785;47.946;20.540;2023-03-01T20:44:10;56.77;;;19.53;;
67585;SDS011;55785;47.946;20.540;2023-03-01T20:46:35;64.23;;;24.53;;
67585;SDS011;55785;47.946;20.540;2023-03-01T20:49:01;35.37;;;14.77;;
67585;SDS011;55785;47.946;20.540;2023-03-01T20:51:27;25.83;;;12.57;;
67585;SDS011;55785;47.946;20.540;2023-03-01T20:53:53;15.47;;;7.73;;
67585;SDS011;55785;47.946;20.540;2023-03-01T20:56:19;27.17;;;11.67;;
67585;SDS011;55785;47.946;20.540;2023-03-01T20:58:45;29.63;;;12.20;;
67585;SDS011;55785;47.946;20.540;2023-03-01T21:01:14;19.93;;;8.03;;
67585;SDS011;55785;47.946;20.540;2023-03-01T21:03:41;14.63;;;7.23;;
67585;SDS011;55785;47.946;20.540;2023-03-01T21:06:06;20.10;;;8.43;;
67585;SDS011;55785;47.946;20.540;2023-03-01T21:08:32;12.37;;;6.00;;
67585;SDS011;55785;47.946;20.540;2023-03-01T21:10:58;9.50;;;4.47;;
67585;SDS011;55785;47.946;20.540;2023-03-01T21:13:24;7.40;;;3.50;;
67585;SDS011;55785;47.946;20.540;2023-03-01T21:15:51;5.90;;;3.40;;
67585;SDS011;55785;47.946;20.540;2023-03-01T21:18:18;7.43;;;3.50;;
67585;SDS011;55785;47.946;20.540;2023-03-01T21:20:44;6.60;;;3.40;;
67585;SDS011;55785;47.946;20.540;2023-03-01T21:23:09;6.90;;;3.17;;
67585;SDS011;55785;47.946;20.540;2023-03-01T21:25:34;6.50;;;3.10;;
67585;SDS011;55785;47.946;20.540;2023-03-01T21:28:00;9.07;;;4.20;;
67585;SDS011;55785;47.946;20.540;2023-03-01T21:30:25;7.93;;;3.80;;
67585;SDS011;55785;47.946;20.540;2023-03-01T21:32:50;6.40;;;3.67;;
67585;SDS011;55785;47.946;20.540;2023-03-01T21:35:16;9.80;;;4.47;;
67585;SDS011;55785;47.946;20.540;2023-03-01T21:37:41;8.40;;;4.43;;
67585;SDS011;55785;47.946;20.540;2023-03-01T21:40:07;8.63;;;4.50;;
67585;SDS011;55785;47.946;20.540;2023-03-01T21:42:33;8.17;;;3.70;;
67585;SDS011;55785;47.946;20.540;2023-03-01T21:44:59;6.57;;;3.50;;
67585;SDS011;55785;47.946;20.540;2023-03-01T21:47:24;6.93;;;3.33;;
67585;SDS011;55785;47.946;20.540;2023-03-01T21:49:50;8.17;;;3.60;;
67585;SDS011;55785;47.946;20.540;2023-03-01T21:52:15;6.30;;;3.17;;
67585;SDS011;55785;47.946;20.540;2023-03-01T21:54:40;6.17;;;3.27;;
67585;SDS011;55785;47.946;20.540;2023-03-01T21:57:06;8.73;;;3.50;;
67585;SDS011;55785;47.946;20.540;2023-03-01T21:59:31;16.97;;;7.07;;
67585;SDS011;55785;47.946;20.540;2023-03-01T22:01:57;15.27;;;6.90;;
67585;SDS011;55785;47.946;20.540;2023-03-01T22:04:22;17.43;;;7.77;;
67585;SDS011;55785;47.946;20.540;2023-03-01T22:06:47;22.67;;;9.87;;
67585;SDS011;55785;47.946;20.540;2023-03-01T22:09:20;34.63;;;14.20;;
67585;SDS011;55785;47.946;20.540;2023-03-01T22:11:48;20.50;;;9.13;;
67585;SDS011;55785;47.946;20.540;2023-03-01T22:14:16;15.53;;;6.97;;
67585;SDS011;55785;47.946;20.540;2023-03-01T22:16:42;16.43;;;7.77;;
67585;SDS011;55785;47.946;20.540;2023-03-01T22:19:08;11.70;;;5.50;;
67585;SDS011;55785;47.946;20.540;2023-03-01T22:21:34;10.17;;;5.00;;
67585;SDS011;55785;47.946;20.540;2023-03-01T22:24:02;7.20;;;3.67;;
67585;SDS011;55785;47.946;20.540;2023-03-01T22:26:32;9.90;;;4.70;;
67585;SDS011;55785;47.946;20.540;2023-03-01T22:29:01;6.67;;;3.73;;
67585;SDS011;55785;47.946;20.540;2023-03-01T22:31:30;7.90;;;3.40;;
67585;SDS011;55785;47.946;20.540;2023-03-01T22:33:56;6.07;;;3.27;;
67585;SDS011;55785;47.946;20.540;2023-03-01T22:36:22;7.40;;;3.50;;
67585;SDS011;55785;47.946;20.540;2023-03-01T22:38:47;10.37;;;3.97;;
67585;SDS011;55785;47.946;20.540;2023-03-01T22:41:13;7.47;;;4.07;;
67585;SDS011;55785;47.946;20.540;2023-03-01T22:43:38;7.17;;;3.53;;
67585;SDS011;55785;47.946;20.540;2023-03-01T22:46:15;9.63;;;4.37;;
67585;SDS011;55785;47.946;20.540;2023-03-01T22:48:42;11.67;;;5.77;;
67585;SDS011;55785;47.946;20.540;2023-03-01T22:51:16;8.70;;;4.30;;
67585;SDS011;55785;47.946;20.540;2023-03-01T22:53:43;7.63;;;3.80;;
67585;SDS011;55785;47.946;20.540;2023-03-01T22:56:19;8.90;;;3.93;;
67585;SDS011;55785;47.946;20.540;2023-03-01T22:58:47;7.07;;;3.63;;
67585;SDS011;55785;47.946;20.540;2023-03-01T23:01:22;6.83;;;3.97;;
67585;SDS011;55785;47.946;20.540;2023-03-01T23:03:48;21.02;;;9.00;;
67585;SDS011;55785;47.946;20.540;2023-03-01T23:06:15;8.40;;;4.17;;
67585;SDS011;55785;47.946;20.540;2023-03-01T23:08:42;6.07;;;3.60;;
67585;SDS011;55785;47.946;20.540;2023-03-01T23:11:12;9.60;;;4.13;;
67585;SDS011;55785;47.946;20.540;2023-03-01T23:13:39;26.77;;;9.40;;
67585;SDS011;55785;47.946;20.540;2023-03-01T23:16:06;20.30;;;8.80;;
67585;SDS011;55785;47.946;20.540;2023-03-01T23:18:33;22.07;;;8.50;;
67585;SDS011;55785;47.946;20.540;2023-03-01T23:21:12;24.20;;;10.33;;
67585;SDS011;55785;47.946;20.540;2023-03-01T23:23:39;19.93;;;8.70;;
67585;SDS011;55785;47.946;20.540;2023-03-01T23:26:05;20.50;;;7.93;;
67585;SDS011;55785;47.946;20.540;2023-03-01T23:28:31;11.37;;;6.00;;
67585;SDS011;55785;47.946;20.540;2023-03-01T23:30:58;20.10;;;7.40;;
67585;SDS011;55785;47.946;20.540;2023-03-01T23:33:25;11.17;;;5.27;;
67585;SDS011;55785;47.946;20.540;2023-03-01T23:35:52;9.67;;;5.17;;
67585;SDS011;55785;47.946;20.540;2023-03-01T23:38:18;11.43;;;4.70;;
67585;SDS011;55785;47.946;20.540;2023-03-01T23:40:44;8.30;;;4.57;;
67585;SDS011;55785;47.946;20.540;2023-03-01T23:43:09;7.83;;;4.13;;
67585;SDS011;55785;47.946;20.540;2023-03-01T23:45:38;10.00;;;4.60;;
67585;SDS011;55785;47.946;20.540;2023-03-01T23:48:04;9.10;;;4.13;;
67585;SDS011;55785;47.946;20.540;2023-03-01T23:50:30;8.53;;;4.30;;
67585;SDS011;55785;47.946;20.540;2023-03-01T23:52:55;8.47;;;4.07;;
67585;SDS011;55785;47.946;20.540;2023-03-01T23:55:21;6.03;;;3.27;;
67585;SDS011;55785;47.946;20.540;2023-03-01T23:57:47;8.03;;;3.90;;
